createdAt,value
2022-12-15T00:06:29.645Z,-7.50
2022-12-15T00:14:22.622Z,-7.59
2022-12-15T00:22:14.059Z,-7.58
2022-12-15T00:30:06.892Z,-7.64
2022-12-15T00:37:58.198Z,-7.70
2022-12-15T00:45:47.203Z,-7.78
2022-12-15T00:53:38.797Z,-7.92
2022-12-15T01:01:31.582Z,-7.98
2022-12-15T01:09:25.262Z,-8.03
2022-12-15T01:17:18.098Z,-8.09
2022-12-15T01:24:51.966Z,-8.17
2022-12-15T01:32:27.686Z,-8.17
2022-12-15T01:40:18.962Z,-8.15
2022-12-15T01:47:56.803Z,-8.15
2022-12-15T01:55:32.447Z,-8.14
2022-12-15T02:03:08.995Z,-8.10
2022-12-15T02:11:08.560Z,-8.18
2022-12-15T02:18:56.313Z,-8.24
2022-12-15T02:26:51.307Z,-8.27
2022-12-15T02:34:35.807Z,-8.33
2022-12-15T02:42:11.752Z,-8.32
2022-12-15T02:50:00.600Z,-8.28
2022-12-15T02:57:41.009Z,-8.33
2022-12-15T03:05:17.833Z,-8.49
2022-12-15T03:12:55.843Z,-8.57
2022-12-15T03:20:32.673Z,-8.58
2022-12-15T03:28:06.943Z,-8.58
2022-12-15T03:35:42.121Z,-8.64
2022-12-15T03:43:15.968Z,-8.63
2022-12-15T03:50:51.799Z,-8.62
2022-12-15T03:58:25.733Z,-8.59
2022-12-15T04:06:00.976Z,-8.57
2022-12-15T04:13:35.071Z,-8.56
2022-12-15T04:21:10.414Z,-8.65
2022-12-15T04:29:01.519Z,-8.79
2022-12-15T04:36:56.293Z,-8.71
2022-12-15T04:44:50.286Z,-8.68
2022-12-15T04:52:42.888Z,-8.67
2022-12-15T05:00:34.539Z,-8.56
2022-12-15T05:08:27.228Z,-8.51
2022-12-15T05:16:18.987Z,-8.42
2022-12-15T05:24:11.991Z,-8.38
2022-12-15T05:31:51.854Z,-8.44
2022-12-15T05:39:27.918Z,-8.37
2022-12-15T05:47:01.717Z,-8.38
2022-12-15T05:54:37.036Z,-8.41
2022-12-15T06:02:11.099Z,-8.50
2022-12-15T06:09:46.770Z,-8.52
2022-12-15T06:17:22.938Z,-8.53
2022-12-15T06:24:58.305Z,-8.60
2022-12-15T06:32:32.538Z,-8.57
2022-12-15T06:40:09.763Z,-8.56
2022-12-15T06:47:43.950Z,-8.76
2022-12-15T06:55:19.327Z,-8.77
2022-12-15T07:02:53.326Z,-8.75
2022-12-15T07:10:29.637Z,-8.69
2022-12-15T07:18:03.643Z,-8.65
2022-12-15T07:25:39.071Z,-8.83
2022-12-15T07:33:13.023Z,-8.88
2022-12-15T07:40:51.946Z,-8.82
2022-12-15T07:48:27.326Z,-8.70
2022-12-15T07:56:09.272Z,-8.66
2022-12-15T08:03:45.195Z,-8.61
2022-12-15T08:11:23.020Z,-8.00
2022-12-15T08:18:57.839Z,-7.05
2022-12-15T08:26:32.984Z,-6.52
2022-12-15T08:34:07.406Z,-6.79
2022-12-15T08:41:42.770Z,-6.93
2022-12-15T08:49:21.658Z,-6.59
2022-12-15T08:56:57.204Z,-6.13
2022-12-15T09:04:31.130Z,-5.57
2022-12-15T09:12:07.387Z,-5.47
2022-12-15T09:19:41.505Z,-5.81
2022-12-15T09:27:16.770Z,-5.98
2022-12-15T09:34:52.037Z,-6.00
2022-12-15T09:42:29.863Z,-5.94
2022-12-15T09:50:05.894Z,-6.00
2022-12-15T09:57:46.694Z,-5.86
2022-12-15T10:05:57.480Z,-5.87
2022-12-15T10:13:33.691Z,-5.87
2022-12-15T10:21:14.237Z,-5.69
2022-12-15T10:29:04.270Z,-5.56
2022-12-15T10:36:38.161Z,-5.52
2022-12-15T10:44:30.435Z,-5.30
2022-12-15T10:52:06.339Z,-5.17
2022-12-15T10:59:41.663Z,-5.03
2022-12-15T11:07:16.000Z,-4.88
2022-12-15T11:14:52.567Z,-4.77
2022-12-15T11:22:37.992Z,-4.61
2022-12-15T11:30:16.781Z,-4.49
2022-12-15T11:37:57.933Z,-4.39
2022-12-15T11:45:43.004Z,-4.25
2022-12-15T11:53:36.883Z,-4.11
2022-12-15T12:01:22.413Z,-3.93
2022-12-15T12:09:16.812Z,-3.71
2022-12-15T12:17:01.482Z,-3.63
2022-12-15T12:24:42.029Z,-3.50
2022-12-15T12:32:33.937Z,-3.30
2022-12-15T12:40:19.665Z,-3.14
2022-12-15T12:47:59.507Z,-3.01
2022-12-15T12:55:40.120Z,-2.92
2022-12-15T13:03:21.530Z,-2.90
2022-12-15T13:10:56.631Z,-2.85
2022-12-15T13:19:02.240Z,-2.85
2022-12-15T13:26:36.459Z,-2.80
2022-12-15T13:34:18.313Z,-2.80
2022-12-15T13:42:34.996Z,-2.75
2022-12-15T13:50:20.872Z,-2.78
2022-12-15T13:58:00.129Z,-2.81
2022-12-15T14:05:36.823Z,-2.81
2022-12-15T14:13:16.442Z,-2.85
2022-12-15T14:20:51.689Z,-2.87
2022-12-15T14:28:28.166Z,-2.86
2022-12-15T14:36:08.064Z,-2.90
2022-12-15T14:43:43.251Z,-2.93
2022-12-15T14:51:19.418Z,-2.96
2022-12-15T14:59:00.681Z,-2.99
2022-12-15T15:06:41.541Z,-3.03
2022-12-15T15:14:18.482Z,-3.09
2022-12-15T15:21:53.771Z,-3.14
2022-12-15T15:29:39.048Z,-3.22
2022-12-15T15:37:18.797Z,-3.27
2022-12-15T15:44:52.621Z,-3.36
2022-12-15T15:52:31.976Z,-3.41
2022-12-15T16:00:17.093Z,-3.48
2022-12-15T16:07:52.462Z,-3.53
2022-12-15T16:15:29.518Z,-3.57
2022-12-15T16:23:08.640Z,-3.69
2022-12-15T16:30:44.187Z,-3.79
2022-12-15T16:38:25.764Z,-3.83
2022-12-15T16:45:59.583Z,-3.84
2022-12-15T16:53:37.904Z,-3.89
2022-12-15T17:01:12.929Z,-3.98
2022-12-15T17:08:54.400Z,-4.04
2022-12-15T17:16:29.933Z,-4.11
2022-12-15T17:24:09.319Z,-4.19
2022-12-15T17:31:43.639Z,-4.28
2022-12-15T17:39:20.618Z,-4.37
2022-12-15T17:46:54.738Z,-4.54
2022-12-15T17:54:30.216Z,-4.54
2022-12-15T18:02:04.160Z,-4.55
2022-12-15T18:09:40.180Z,-4.54
2022-12-15T18:17:14.085Z,-4.54
2022-12-15T18:24:50.143Z,-4.61
2022-12-15T18:32:26.164Z,-4.75
2022-12-15T18:40:04.931Z,-4.75
2022-12-15T18:47:39.618Z,-4.82
2022-12-15T18:55:21.422Z,-4.86
2022-12-15T19:02:57.402Z,-4.89
2022-12-15T19:10:35.360Z,-4.88
2022-12-15T19:18:32.285Z,-4.94
2022-12-15T19:26:11.351Z,-4.95
2022-12-15T19:33:45.474Z,-5.01
2022-12-15T19:41:21.132Z,-5.11
2022-12-15T19:48:55.356Z,-5.15
2022-12-15T19:56:31.046Z,-5.18
2022-12-15T20:04:05.044Z,-5.23
2022-12-15T20:11:40.473Z,-5.27
2022-12-15T20:27:13.372Z,-5.32
2022-12-15T20:34:49.165Z,-5.38
2022-12-15T20:42:24.914Z,-5.40
2022-12-15T20:49:58.828Z,-5.42
2022-12-15T20:57:34.120Z,-5.51
2022-12-15T21:05:09.057Z,-5.57
2022-12-15T21:12:46.771Z,-5.66
2022-12-15T21:20:20.971Z,-5.74
2022-12-15T21:27:56.241Z,-5.76
2022-12-15T21:35:31.909Z,-5.83
2022-12-15T21:43:07.381Z,-5.89
2022-12-15T21:50:43.380Z,-5.93
2022-12-15T21:58:21.928Z,-5.99
2022-12-15T22:05:55.794Z,-6.04
2022-12-15T22:13:32.875Z,-6.09
2022-12-15T22:21:07.752Z,-6.12
2022-12-15T22:28:43.157Z,-6.18
2022-12-15T22:36:17.264Z,-6.25
2022-12-15T22:43:55.249Z,-6.29
2022-12-15T22:51:29.107Z,-6.33
2022-12-15T22:59:09.021Z,-6.35
2022-12-15T23:06:42.912Z,-6.32
2022-12-15T23:14:19.082Z,-6.35
2022-12-15T23:21:53.114Z,-6.41
2022-12-15T23:29:28.357Z,-6.64
2022-12-15T23:37:02.700Z,-6.58
2022-12-15T23:44:38.400Z,-6.55
2022-12-15T23:52:12.427Z,-6.59
2022-12-15T23:59:47.574Z,-6.60
